Time;durP1;ratioP1;P1;durP2;ratioP2;P2;SDS_P1;SDS_P2;PMS_P1;PMS_P2;Temp;Humidity;BMP_temperature;BMP_pressure;BME280_temperature;BME280_humidity;BME280_pressure;Samples;Min_cycle;Max_cycle;Signal;HPM_P1;HPM_P2
2023/07/31 00:00:27;;;;;;;12.68;5.50;;;28.00;79.20;;;;;;6215759;23;20001;-72
2023/07/31 00:02:54;;;;;;;11.32;5.18;;;28.00;79.20;;;;;;6215504;23;20035;-71
2023/07/31 00:05:19;;;;;;;12.30;5.90;;;28.00;79.20;;;;;;6215610;23;20063;-72
2023/07/31 00:07:45;;;;;;;12.75;5.65;;;27.90;79.30;;;;;;6215510;23;20005;-71
2023/07/31 00:10:11;;;;;;;12.10;5.43;;;27.90;79.50;;;;;;6215502;23;20083;-71
2023/07/31 00:12:39;;;;;;;11.88;5.53;;;27.90;79.80;;;;;;6215722;23;20008;-73
2023/07/31 00:15:06;;;;;;;9.82;5.63;;;27.80;79.70;;;;;;6215548;23;20016;-72
2023/07/31 00:17:32;;;;;;;14.57;5.60;;;27.90;79.50;;;;;;6215267;23;20001;-71
2023/07/31 00:19:58;;;;;;;14.05;6.40;;;27.90;79.40;;;;;;6215471;23;20055;-71
2023/07/31 00:22:24;;;;;;;14.02;6.20;;;27.90;78.90;;;;;;6215722;23;20284;-71
2023/07/31 00:24:49;;;;;;;14.43;6.70;;;27.90;78.40;;;;;;6189007;23;20000;-71
2023/07/31 00:27:15;;;;;;;13.43;6.65;;;27.90;78.70;;;;;;6188477;23;20039;-72
2023/07/31 00:29:41;;;;;;;14.65;7.30;;;27.90;78.70;;;;;;6215296;23;20076;-72
2023/07/31 00:32:07;;;;;;;16.50;7.78;;;27.80;79.00;;;;;;6214967;23;20008;-71
2023/07/31 00:34:33;;;;;;;14.88;8.35;;;27.80;78.90;;;;;;6215223;23;19997;-71
2023/07/31 00:36:58;;;;;;;16.25;8.15;;;27.70;79.00;;;;;;6214966;23;20004;-71
2023/07/31 00:39:24;;;;;;;15.07;7.93;;;27.60;79.00;;;;;;6215543;23;19996;-72
2023/07/31 00:41:50;;;;;;;17.38;8.43;;;27.60;78.70;;;;;;6215348;23;20055;-71
2023/07/31 00:44:15;;;;;;;14.35;8.00;;;27.50;78.80;;;;;;6215012;23;20388;-71
2023/07/31 00:46:41;;;;;;;19.20;8.13;;;27.40;78.70;;;;;;6215493;23;20076;-71
2023/07/31 00:49:08;;;;;;;15.65;8.13;;;27.40;78.90;;;;;;6214608;23;20064;-71
2023/07/31 00:51:34;;;;;;;15.63;8.43;;;27.40;78.80;;;;;;6214360;23;20022;-70
2023/07/31 00:54:00;;;;;;;13.85;8.13;;;27.30;78.90;;;;;;6214988;23;20005;-71
2023/07/31 00:56:27;;;;;;;14.73;7.80;;;27.30;79.00;;;;;;6215099;23;20000;-71
2023/07/31 00:58:53;;;;;;;15.68;7.88;;;27.30;79.00;;;;;;6215426;23;19996;-71
2023/07/31 01:01:19;;;;;;;16.05;7.82;;;27.30;78.90;;;;;;6214802;23;20004;-71
2023/07/31 01:03:45;;;;;;;21.60;7.90;;;27.40;78.80;;;;;;6214766;23;20024;-72
2023/07/31 01:06:45;;;;;;;15.80;8.00;;;27.40;78.40;;;;;;6214898;23;20024;-71
2023/07/31 01:09:31;;;;;;;19.40;8.80;;;27.40;78.10;;;;;;6214650;23;20007;-70
2023/07/31 01:12:02;;;;;;;15.35;8.13;;;27.30;78.20;;;;;;6214713;23;20283;-70
2023/07/31 01:14:28;;;;;;;12.82;7.97;;;27.30;78.70;;;;;;6214841;23;20394;-71
2023/07/31 01:16:55;;;;;;;17.33;7.82;;;27.30;78.30;;;;;;6214987;23;19996;-71
2023/07/31 01:19:26;;;;;;;13.23;7.90;;;27.40;78.00;;;;;;6214879;23;19998;-72
2023/07/31 01:22:05;;;;;;;14.68;7.63;;;27.30;77.80;;;;;;6214760;23;20028;-71
2023/07/31 01:24:55;;;;;;;13.93;7.38;;;27.30;77.90;;;;;;6214593;23;20004;-71
2023/07/31 01:27:30;;;;;;;15.27;7.72;;;27.30;77.80;;;;;;6214820;23;20079;-72
2023/07/31 01:29:59;;;;;;;14.18;8.48;;;27.30;77.70;;;;;;6214611;23;20023;-72
2023/07/31 01:32:27;;;;;;;18.05;8.02;;;27.30;78.30;;;;;;6214602;23;20037;-72
2023/07/31 01:34:54;;;;;;;14.50;7.57;;;27.30;77.60;;;;;;6214782;23;20028;-72
2023/07/31 01:37:20;;;;;;;17.40;7.57;;;27.30;77.50;;;;;;6214754;23;20004;-72
2023/07/31 01:39:46;;;;;;;15.98;7.60;;;27.30;77.50;;;;;;6214279;23;20028;-71
2023/07/31 01:42:11;;;;;;;17.63;8.55;;;27.30;77.60;;;;;;6214372;23;20044;-72
2023/07/31 01:44:37;;;;;;;15.15;7.53;;;27.30;77.70;;;;;;6187799;23;20016;-71
2023/07/31 01:47:03;;;;;;;14.68;7.95;;;27.30;77.80;;;;;;6214699;23;20280;-72
2023/07/31 01:49:28;;;;;;;13.45;7.80;;;27.30;77.70;;;;;;6214775;23;20001;-72
2023/07/31 01:51:54;;;;;;;13.10;7.38;;;27.30;77.50;;;;;;6214670;23;20091;-72
2023/07/31 01:54:20;;;;;;;15.68;7.43;;;27.30;77.80;;;;;;6214380;23;20082;-71
2023/07/31 01:56:45;;;;;;;15.38;6.93;;;27.20;77.80;;;;;;6214493;23;20087;-70
2023/07/31 01:59:11;;;;;;;14.23;7.22;;;27.20;77.80;;;;;;6214279;23;20446;-71
2023/07/31 02:01:37;;;;;;;14.85;7.18;;;27.10;77.60;;;;;;6214380;23;20007;-72
2023/07/31 02:04:04;;;;;;;12.60;7.07;;;27.10;77.80;;;;;;6214498;23;20024;-71
2023/07/31 02:06:30;;;;;;;11.98;6.38;;;27.20;77.90;;;;;;6214872;23;20000;-71
2023/07/31 02:08:56;;;;;;;11.82;6.22;;;27.20;77.50;;;;;;6214457;23;20034;-70
2023/07/31 02:11:21;;;;;;;14.18;6.93;;;27.10;77.70;;;;;;6214491;23;20327;-71
2023/07/31 02:13:47;;;;;;;13.35;6.15;;;27.10;77.60;;;;;;6214120;23;20001;-70
2023/07/31 02:16:13;;;;;;;14.48;6.90;;;27.10;77.50;;;;;;6214523;23;20012;-70
2023/07/31 02:18:39;;;;;;;13.10;6.50;;;27.00;77.50;;;;;;6214810;23;20001;-71
2023/07/31 02:21:04;;;;;;;14.43;6.57;;;26.90;77.70;;;;;;6214147;23;20283;-72
2023/07/31 02:23:30;;;;;;;11.13;6.53;;;26.80;77.80;;;;;;6214076;23;20067;-72
2023/07/31 02:25:56;;;;;;;13.65;6.22;;;26.80;77.70;;;;;;6214346;23;20005;-71
2023/07/31 02:28:21;;;;;;;15.05;6.10;;;26.80;78.00;;;;;;6214317;23;20000;-71
2023/07/31 02:30:47;;;;;;;13.60;5.85;;;26.80;77.80;;;;;;6214175;23;20019;-71
2023/07/31 02:33:14;;;;;;;11.13;5.68;;;26.80;77.50;;;;;;6214167;23;19997;-72
2023/07/31 02:35:40;;;;;;;10.40;6.22;;;26.80;77.40;;;;;;6214268;23;20027;-71
2023/07/31 02:38:06;;;;;;;15.68;6.10;;;26.80;77.50;;;;;;6214456;23;19996;-71
2023/07/31 02:40:31;;;;;;;13.80;6.18;;;26.70;77.60;;;;;;6214834;23;20015;-72
2023/07/31 02:42:57;;;;;;;11.98;5.38;;;26.70;77.60;;;;;;6214754;23;20426;-70
2023/07/31 02:45:23;;;;;;;11.95;5.97;;;26.70;77.50;;;;;;6214687;23;20308;-71
2023/07/31 02:47:48;;;;;;;10.32;5.20;;;26.70;77.50;;;;;;6214344;23;20083;-71
2023/07/31 02:50:14;;;;;;;14.90;6.50;;;26.60;77.70;;;;;;6214758;23;20013;-72
2023/07/31 02:52:40;;;;;;;11.30;5.80;;;26.60;78.20;;;;;;6214290;23;20308;-71
2023/07/31 02:55:06;;;;;;;12.23;5.65;;;26.50;77.70;;;;;;6214358;23;20288;-72
2023/07/31 02:57:32;;;;;;;13.48;6.30;;;26.60;77.60;;;;;;6214274;23;20079;-71
2023/07/31 02:59:58;;;;;;;12.57;6.03;;;26.60;77.60;;;;;;6213862;23;20004;-71
2023/07/31 03:02:23;;;;;;;10.85;5.40;;;26.60;77.40;;;;;;6213832;23;20027;-71
2023/07/31 03:04:49;;;;;;;9.35;5.68;;;26.60;77.30;;;;;;6214245;23;20363;-71
2023/07/31 03:07:14;;;;;;;10.90;5.78;;;26.60;77.30;;;;;;6213941;23;20051;-70
2023/07/31 03:09:40;;;;;;;11.05;5.50;;;26.60;77.40;;;;;;6213789;23;20003;-71
2023/07/31 03:12:06;;;;;;;9.50;5.43;;;26.60;77.20;;;;;;6213826;23;20417;-71
2023/07/31 03:14:32;;;;;;;12.32;5.40;;;26.60;77.20;;;;;;6215865;23;20000;-71
2023/07/31 03:16:59;;;;;;;13.88;4.90;;;26.60;77.40;;;;;;6189362;23;20020;-70
2023/07/31 03:19:24;;;;;;;8.27;4.80;;;26.50;77.40;;;;;;6216278;23;20403;-71
2023/07/31 03:21:50;;;;;;;8.00;4.28;;;26.50;77.20;;;;;;6216109;23;20005;-72
2023/07/31 03:24:16;;;;;;;14.75;5.32;;;26.50;77.00;;;;;;6216257;23;20426;-72
2023/07/31 03:26:41;;;;;;;9.70;4.68;;;26.50;77.00;;;;;;6216029;23;20002;-72
2023/07/31 03:29:08;;;;;;;11.75;4.63;;;26.50;77.00;;;;;;6215963;23;20007;-71
2023/07/31 03:31:34;;;;;;;13.57;4.63;;;26.40;77.20;;;;;;6215767;23;20104;-70
2023/07/31 03:33:59;;;;;;;9.00;4.82;;;26.40;76.80;;;;;;6216264;23;20001;-72
2023/07/31 03:36:25;;;;;;;13.85;4.82;;;26.30;76.80;;;;;;6216062;23;20088;-71
2023/07/31 03:38:52;;;;;;;8.05;4.95;;;26.30;77.40;;;;;;6215645;23;20000;-70
2023/07/31 03:41:18;;;;;;;8.98;4.90;;;26.30;76.60;;;;;;6216233;23;20008;-70
2023/07/31 03:43:43;;;;;;;10.48;5.03;;;26.30;76.90;;;;;;6216225;23;20001;-70
2023/07/31 03:46:09;;;;;;;7.65;4.75;;;26.30;77.20;;;;;;6216289;23;20005;-71
2023/07/31 03:48:35;;;;;;;8.52;4.95;;;26.30;77.00;;;;;;6189354;23;20083;-71
2023/07/31 03:51:00;;;;;;;9.23;5.47;;;26.30;77.10;;;;;;6215657;23;20008;-70
2023/07/31 03:53:26;;;;;;;10.10;5.20;;;26.20;77.30;;;;;;6215999;23;19997;-70
2023/07/31 03:55:52;;;;;;;11.25;5.43;;;26.20;77.60;;;;;;6215850;23;20005;-70
2023/07/31 03:58:17;;;;;;;9.45;5.05;;;26.20;77.80;;;;;;6215913;23;19997;-70
2023/07/31 04:00:43;;;;;;;11.52;4.97;;;26.20;77.80;;;;;;6216128;23;20055;-71
2023/07/31 04:03:08;;;;;;;10.00;4.63;;;26.20;77.90;;;;;;6215765;23;20013;-71
2023/07/31 04:05:39;;;;;;;9.23;4.78;;;26.10;78.50;;;;;;6215434;23;20029;-70
2023/07/31 04:08:05;;;;;;;10.52;5.32;;;26.10;78.30;;;;;;6215526;23;20512;-71
2023/07/31 04:10:33;;;;;;;10.88;5.72;;;26.10;78.50;;;;;;6215667;23;20039;-71
2023/07/31 04:12:59;;;;;;;12.88;5.63;;;26.00;78.90;;;;;;6215658;23;20001;-71
2023/07/31 04:15:24;;;;;;;12.20;5.47;;;26.00;79.20;;;;;;6215973;23;20092;-70
2023/07/31 04:17:50;;;;;;;14.57;6.10;;;26.00;79.60;;;;;;6215477;23;20098;-72
2023/07/31 04:20:16;;;;;;;11.93;6.43;;;26.00;79.20;;;;;;6215669;23;20013;-72
2023/07/31 04:22:42;;;;;;;11.10;5.65;;;26.00;79.60;;;;;;6215625;23;20009;-71
2023/07/31 04:25:07;;;;;;;14.05;5.47;;;26.00;79.80;;;;;;6215272;23;20063;-71
2023/07/31 04:27:33;;;;;;;10.68;5.13;;;25.90;80.00;;;;;;6215861;23;20375;-71
2023/07/31 04:29:59;;;;;;;11.32;5.65;;;25.80;80.30;;;;;;6215434;23;20071;-71
2023/07/31 04:32:24;;;;;;;11.75;5.00;;;25.80;80.50;;;;;;6215551;23;20430;-71
2023/07/31 04:34:50;;;;;;;9.18;5.00;;;25.70;80.60;;;;;;6215680;23;20004;-71
2023/07/31 04:37:16;;;;;;;9.15;5.30;;;25.80;80.50;;;;;;6216095;23;20016;-71
2023/07/31 04:39:41;;;;;;;11.60;5.13;;;25.80;80.50;;;;;;6215414;23;20004;-71
2023/07/31 04:42:07;;;;;;;10.77;4.60;;;25.70;80.30;;;;;;6215436;23;20402;-71
2023/07/31 04:44:33;;;;;;;9.85;4.47;;;25.80;80.50;;;;;;6215626;23;20019;-71
2023/07/31 04:46:59;;;;;;;12.52;4.60;;;25.80;80.20;;;;;;6215444;23;20379;-72
2023/07/31 04:49:24;;;;;;;10.23;4.63;;;25.80;80.10;;;;;;6188777;23;20426;-71
2023/07/31 04:51:50;;;;;;;12.60;4.90;;;25.90;80.00;;;;;;6215079;23;20020;-73
2023/07/31 04:54:16;;;;;;;9.48;4.70;;;25.90;79.70;;;;;;6215173;23;19996;-72
2023/07/31 04:56:41;;;;;;;10.35;5.40;;;26.00;79.80;;;;;;6188757;23;20009;-70
2023/07/31 04:59:07;;;;;;;11.57;5.28;;;26.00;79.60;;;;;;6188227;23;20079;-72
2023/07/31 05:01:33;;;;;;;9.60;5.20;;;26.10;80.00;;;;;;6215398;23;20004;-71
2023/07/31 05:03:58;;;;;;;12.02;5.50;;;26.10;79.50;;;;;;6215035;23;20012;-71
2023/07/31 05:06:24;;;;;;;9.32;5.40;;;26.10;79.60;;;;;;6215132;23;20004;-72
2023/07/31 05:08:50;;;;;;;13.10;5.05;;;26.10;79.50;;;;;;6215156;23;20079;-71
2023/07/31 05:11:15;;;;;;;10.63;5.18;;;26.10;79.50;;;;;;6214978;23;20439;-73
2023/07/31 05:13:41;;;;;;;11.60;4.93;;;26.10;79.40;;;;;;6215116;23;20079;-72
2023/07/31 05:16:07;;;;;;;15.00;4.90;;;26.10;79.50;;;;;;6214855;23;20005;-70
2023/07/31 05:18:32;;;;;;;8.93;4.25;;;26.10;79.40;;;;;;6215382;23;20319;-72
2023/07/31 05:20:58;;;;;;;9.80;5.00;;;26.10;79.10;;;;;;6214736;23;20000;-72
2023/07/31 05:23:24;;;;;;;11.27;4.95;;;26.30;78.90;;;;;;6214698;23;20391;-71
2023/07/31 05:25:49;;;;;;;13.27;4.80;;;26.50;78.50;;;;;;6214414;23;19996;-71
2023/07/31 05:28:15;;;;;;;8.85;4.30;;;26.80;77.80;;;;;;6214668;23;20008;-71
2023/07/31 05:30:41;;;;;;;12.35;5.13;;;27.00;77.70;;;;;;6214525;23;20008;-71
2023/07/31 05:33:06;;;;;;;10.80;4.82;;;27.30;76.60;;;;;;6187892;23;20088;-71
2023/07/31 05:35:32;;;;;;;8.18;5.05;;;27.60;75.50;;;;;;6214644;23;20497;-72
2023/07/31 05:37:58;;;;;;;11.30;5.25;;;27.90;74.50;;;;;;6214493;23;20434;-72
2023/07/31 05:40:23;;;;;;;8.52;4.82;;;28.20;74.00;;;;;;6214530;23;20004;-72
2023/07/31 05:42:49;;;;;;;9.63;4.68;;;28.30;73.70;;;;;;6214716;23;20437;-72
2023/07/31 05:45:15;;;;;;;10.93;4.53;;;28.60;73.20;;;;;;6214697;23;20445;-72
2023/07/31 05:47:40;;;;;;;11.60;5.32;;;28.80;72.40;;;;;;6214666;23;20075;-71
2023/07/31 05:50:06;;;;;;;11.18;4.95;;;29.10;71.90;;;;;;6214589;23;20032;-73
2023/07/31 05:52:32;;;;;;;9.52;4.85;;;29.30;71.10;;;;;;6214759;23;20347;-73
2023/07/31 05:54:58;;;;;;;14.20;5.55;;;29.50;70.90;;;;;;6214432;23;20343;-71
2023/07/31 05:57:23;;;;;;;16.35;5.00;;;29.80;70.20;;;;;;6214210;23;20043;-75
2023/07/31 05:59:49;;;;;;;17.70;5.10;;;30.10;69.60;;;;;;6214351;23;20419;-74
2023/07/31 06:02:15;;;;;;;12.98;4.47;;;30.20;69.10;;;;;;6213873;23;20021;-75
2023/07/31 06:04:40;;;;;;;11.52;4.53;;;30.30;69.10;;;;;;6214044;23;20388;-75
2023/07/31 06:07:06;;;;;;;11.25;4.93;;;30.50;68.30;;;;;;6214020;23;20004;-79
2023/07/31 06:09:32;;;;;;;11.38;4.88;;;30.70;68.10;;;;;;6214189;23;20104;-77
2023/07/31 06:11:58;;;;;;;7.45;4.40;;;30.90;67.20;;;;;;6214064;23;20013;-79
2023/07/31 06:14:24;;;;;;;11.30;4.57;;;31.10;66.70;;;;;;6214123;23;20427;-76
2023/07/31 06:16:49;;;;;;;9.45;4.45;;;31.30;65.90;;;;;;6214048;23;20005;-77
2023/07/31 06:19:15;;;;;;;11.27;4.93;;;31.30;65.40;;;;;;6214373;23;20023;-76
2023/07/31 06:21:43;;;;;;;13.90;5.07;;;31.40;65.20;;;;;;6214215;23;20001;-77
2023/07/31 06:24:09;;;;;;;12.77;5.20;;;31.50;64.90;;;;;;6213906;23;20009;-74
2023/07/31 06:26:34;;;;;;;10.35;4.90;;;31.80;64.70;;;;;;6213773;23;20063;-73
2023/07/31 06:29:00;;;;;;;9.27;5.00;;;31.90;64.30;;;;;;6187338;23;20079;-75
2023/07/31 06:31:26;;;;;;;13.43;4.65;;;32.10;63.90;;;;;;6214524;23;20083;-74
2023/07/31 06:33:52;;;;;;;14.70;4.65;;;32.10;63.20;;;;;;6214234;23;19997;-75
2023/07/31 06:36:18;;;;;;;10.55;4.70;;;32.10;62.90;;;;;;6213960;23;20005;-75
2023/07/31 06:38:44;;;;;;;13.25;4.50;;;32.10;63.00;;;;;;6214192;23;19997;-75
2023/07/31 06:41:10;;;;;;;9.75;4.43;;;32.20;62.60;;;;;;6214348;23;20012;-75
2023/07/31 06:43:36;;;;;;;13.52;4.90;;;32.20;62.00;;;;;;6214026;23;20008;-75
2023/07/31 06:46:08;;;;;;;10.70;4.70;;;32.30;62.00;;;;;;6214091;23;20236;-76
2023/07/31 06:48:34;;;;;;;10.65;4.85;;;32.30;61.80;;;;;;6214163;23;20300;-76
2023/07/31 06:51:03;;;;;;;11.07;4.97;;;32.30;61.30;;;;;;6214279;23;20019;-76
2023/07/31 06:53:29;;;;;;;14.25;4.57;;;32.40;61.50;;;;;;6214668;23;20015;-76
2023/07/31 06:55:55;;;;;;;11.93;5.28;;;32.60;61.00;;;;;;6214290;23;20032;-74
2023/07/31 06:58:20;;;;;;;13.82;4.93;;;32.70;60.80;;;;;;6213944;23;20001;-74
2023/07/31 07:00:46;;;;;;;13.05;4.65;;;32.70;60.50;;;;;;6187435;23;20095;-74
2023/07/31 07:03:14;;;;;;;10.70;4.70;;;32.70;60.40;;;;;;6187047;23;20316;-75
2023/07/31 07:05:40;;;;;;;13.27;5.38;;;32.70;60.10;;;;;;6213612;23;20040;-76
2023/07/31 07:08:06;;;;;;;12.38;4.43;;;32.90;59.70;;;;;;6214171;23;20005;-76
2023/07/31 07:10:31;;;;;;;15.27;4.85;;;32.90;59.50;;;;;;6214691;23;20434;-75
2023/07/31 07:12:57;;;;;;;15.52;4.95;;;33.00;59.10;;;;;;6214268;23;20000;-76
2023/07/31 07:15:23;;;;;;;14.68;4.88;;;33.10;58.90;;;;;;6214207;23;20005;-76
2023/07/31 07:17:48;;;;;;;11.75;4.57;;;33.00;59.00;;;;;;6214398;23;19997;-76
2023/07/31 07:20:14;;;;;;;11.85;4.75;;;32.90;58.90;;;;;;6214390;23;20020;-77
2023/07/31 07:22:42;;;;;;;11.63;4.82;;;32.90;59.10;;;;;;6214653;23;20059;-78
2023/07/31 07:25:08;;;;;;;10.00;4.18;;;32.80;58.70;;;;;;6214272;23;19997;-76
2023/07/31 07:27:34;;;;;;;8.45;3.70;;;33.00;58.90;;;;;;6214063;23;20330;-76
2023/07/31 07:30:00;;;;;;;13.98;5.10;;;33.00;58.30;;;;;;6162688;23;20036;-75
2023/07/31 07:32:26;;;;;;;13.60;4.28;;;33.00;58.20;;;;;;6214579;23;20418;-77
2023/07/31 07:34:52;;;;;;;9.98;4.55;;;33.00;58.10;;;;;;6187754;23;20028;-77
2023/07/31 07:37:17;;;;;;;10.00;4.32;;;32.90;58.30;;;;;;6221651;23;20438;-76
2023/07/31 07:39:43;;;;;;;10.73;4.28;;;32.90;58.10;;;;;;6217905;23;20024;-76
2023/07/31 07:42:09;;;;;;;11.02;4.55;;;32.90;57.80;;;;;;6214513;23;20011;-78
2023/07/31 07:44:35;;;;;;;9.43;4.40;;;32.90;57.50;;;;;;6214998;23;20068;-77
2023/07/31 07:47:00;;;;;;;9.77;4.53;;;32.90;57.30;;;;;;6214386;23;20415;-77
2023/07/31 07:49:26;;;;;;;12.38;4.35;;;32.80;57.60;;;;;;6214250;23;20068;-75
2023/07/31 07:51:52;;;;;;;10.90;4.18;;;32.70;58.20;;;;;;6214579;23;20012;-77
2023/07/31 07:54:17;;;;;;;12.40;4.22;;;32.70;57.60;;;;;;6214231;23;20025;-77
2023/07/31 07:56:43;;;;;;;10.20;3.88;;;32.70;57.50;;;;;;6214096;23;20009;-76
2023/07/31 07:59:09;;;;;;;11.27;4.70;;;32.80;57.10;;;;;;6214582;23;20000;-76
2023/07/31 08:01:34;;;;;;;7.45;4.10;;;32.70;57.20;;;;;;6189362;23;20010;-77
2023/07/31 08:04:00;;;;;;;8.63;3.70;;;32.80;57.00;;;;;;6216035;23;20013;-77
2023/07/31 08:06:26;;;;;;;12.43;4.10;;;32.80;56.90;;;;;;6216309;23;20001;-78
2023/07/31 08:08:52;;;;;;;11.65;4.03;;;32.70;57.00;;;;;;6215926;23;20334;-77
2023/07/31 08:11:17;;;;;;;9.32;4.07;;;32.60;56.90;;;;;;6215933;23;20008;-76
2023/07/31 08:13:43;;;;;;;12.10;4.32;;;32.50;56.90;;;;;;6216013;23;20083;-77
2023/07/31 08:16:09;;;;;;;11.27;4.38;;;32.50;57.30;;;;;;6215934;23;20027;-76
2023/07/31 08:18:35;;;;;;;9.00;3.97;;;32.40;57.60;;;;;;6215787;23;20498;-78
2023/07/31 08:21:02;;;;;;;11.48;4.07;;;32.30;57.70;;;;;;6215862;23;20039;-76
2023/07/31 08:23:28;;;;;;;8.57;4.03;;;32.30;58.00;;;;;;6215562;23;20004;-77
2023/07/31 08:25:54;;;;;;;13.68;4.22;;;32.20;58.10;;;;;;6215899;23;20001;-76
2023/07/31 08:28:19;;;;;;;12.50;3.83;;;32.10;58.30;;;;;;6215599;23;20081;-77
2023/07/31 08:30:45;;;;;;;8.32;3.70;;;32.10;58.60;;;;;;6216468;23;20399;-78
2023/07/31 08:33:11;;;;;;;8.38;3.50;;;32.00;58.30;;;;;;6215717;23;20007;-77
2023/07/31 08:35:37;;;;;;;10.20;3.78;;;32.00;58.20;;;;;;6216463;23;20418;-77
2023/07/31 08:38:02;;;;;;;14.70;3.50;;;32.00;58.10;;;;;;6189716;23;20024;-78
2023/07/31 08:40:29;;;;;;;7.88;3.40;;;31.90;57.90;;;;;;6216045;23;20005;-78
2023/07/31 08:43:02;;;;;;;12.73;3.90;;;31.90;57.80;;;;;;6215947;23;20304;-76
2023/07/31 08:45:28;;;;;;;7.68;3.45;;;31.80;57.90;;;;;;6216141;23;20010;-77
2023/07/31 08:47:55;;;;;;;7.80;2.88;;;31.80;57.70;;;;;;6216198;23;20028;-77
2023/07/31 08:50:21;;;;;;;8.18;3.63;;;31.70;57.20;;;;;;6216090;23;20382;-77
2023/07/31 08:52:49;;;;;;;10.32;3.75;;;31.60;57.10;;;;;;6215479;23;20035;-76
2023/07/31 08:55:14;;;;;;;10.80;3.40;;;31.70;56.80;;;;;;6215796;23;20071;-78
2023/07/31 08:57:42;;;;;;;10.23;4.28;;;31.70;56.00;;;;;;6215636;23;20067;-76
2023/07/31 09:00:10;;;;;;;12.55;3.88;;;31.60;55.60;;;;;;6215811;23;20001;-77
2023/07/31 09:02:45;;;;;;;14.70;3.85;;;31.60;55.30;;;;;;6215394;23;20320;-76
2023/07/31 09:05:12;;;;;;;17.98;4.30;;;31.70;54.70;;;;;;6215624;23;20007;-79
2023/07/31 09:07:39;;;;;;;24.40;4.57;;;31.70;54.10;;;;;;6215335;23;20385;-76
2023/07/31 09:10:05;;;;;;;14.02;2.92;;;31.70;53.30;;;;;;6215169;23;20001;-77
2023/07/31 09:12:31;;;;;;;12.18;3.55;;;31.70;51.80;;;;;;6214992;23;20429;-76
2023/07/31 09:15:01;;;;;;;7.65;3.00;;;31.60;51.70;;;;;;6215256;23;20008;-75
2023/07/31 09:17:33;;;;;;;9.60;2.85;;;31.60;51.20;;;;;;6215254;23;20457;-77
2023/07/31 09:20:20;;;;;;;8.60;3.20;;;31.60;50.90;;;;;;6215178;23;20011;-77
2023/07/31 09:22:47;;;;;;;6.95;3.13;;;31.60;50.60;;;;;;6215081;23;20092;-76
2023/07/31 09:25:26;;;;;;;12.93;3.10;;;31.60;51.00;;;;;;6215041;23;20063;-77
2023/07/31 09:27:59;;;;;;;10.63;3.50;;;31.70;50.60;;;;;;6215610;23;20076;-78
2023/07/31 09:30:25;;;;;;;;;;;31.80;49.50;;;;;;6222425;23;20012;-77
2023/07/31 09:32:52;;;;;;;9.57;3.35;;;31.90;51.00;;;;;;6196518;23;19907;-77
2023/07/31 09:35:21;;;;;;;9.25;3.08;;;31.90;51.10;;;;;;6215914;23;20296;-78
2023/07/31 09:37:52;;;;;;;11.30;3.30;;;31.90;50.40;;;;;;6215574;23;19997;-78
2023/07/31 09:40:27;;;;;;;8.73;3.22;;;31.90;50.50;;;;;;6215492;23;20001;-78
2023/07/31 09:42:55;;;;;;;6.82;3.25;;;31.90;49.70;;;;;;6215040;23;20005;-77
2023/07/31 09:45:22;;;;;;;6.38;3.20;;;31.90;49.30;;;;;;6215631;23;20024;-77
2023/07/31 09:47:48;;;;;;;6.00;2.60;;;32.10;49.50;;;;;;6215300;23;20008;-78
2023/07/31 09:50:16;;;;;;;6.60;3.10;;;32.10;48.50;;;;;;6215346;23;20060;-78
2023/07/31 09:52:42;;;;;;;7.18;3.20;;;32.20;48.10;;;;;;6215694;23;20005;-78
2023/07/31 09:55:08;;;;;;;7.05;3.45;;;32.20;47.80;;;;;;6215560;23;20047;-77
2023/07/31 09:57:39;;;;;;;9.45;3.05;;;32.30;47.30;;;;;;6214833;23;20005;-77
2023/07/31 10:00:06;;;;;;;5.47;2.63;;;32.30;47.20;;;;;;6215236;23;19996;-78
2023/07/31 10:02:32;;;;;;;6.78;2.75;;;32.40;46.90;;;;;;6215181;23;20091;-78
2023/07/31 10:05:01;;;;;;;7.55;2.90;;;32.40;46.70;;;;;;6214931;23;20004;-77
2023/07/31 10:07:29;;;;;;;6.00;2.70;;;32.40;45.60;;;;;;6214886;23;20423;-77
2023/07/31 10:09:59;;;;;;;7.20;2.70;;;32.50;44.50;;;;;;6215132;23;20008;-77
2023/07/31 10:12:30;;;;;;;5.50;2.80;;;32.50;44.40;;;;;;6214948;23;20067;-78
2023/07/31 10:14:56;;;;;;;8.50;3.20;;;32.60;43.00;;;;;;6214849;23;19997;-77
2023/07/31 10:17:23;;;;;;;5.53;2.78;;;32.70;42.90;;;;;;6215055;23;19997;-78
2023/07/31 10:19:49;;;;;;;7.22;2.45;;;32.80;42.60;;;;;;6188312;23;20048;-78
2023/07/31 10:22:16;;;;;;;7.45;2.85;;;32.80;41.80;;;;;;6187927;23;20013;-77
2023/07/31 10:24:46;;;;;;;6.45;2.67;;;32.90;41.70;;;;;;6214981;23;20079;-77
2023/07/31 10:27:12;;;;;;;5.60;2.83;;;33.00;41.80;;;;;;6215159;23;20000;-76
2023/07/31 10:29:39;;;;;;;8.82;3.00;;;33.00;41.50;;;;;;6215357;23;20007;-77
2023/07/31 10:32:10;;;;;;;6.75;2.53;;;33.10;41.20;;;;;;6215320;23;20040;-76
2023/07/31 10:34:36;;;;;;;6.57;2.60;;;33.20;39.80;;;;;;6215409;23;20092;-78
2023/07/31 10:37:36;;;;;;;6.32;2.95;;;33.20;39.70;;;;;;6215211;23;20007;-76
2023/07/31 10:40:08;;;;;;;8.75;2.88;;;33.20;39.40;;;;;;6215369;23;20001;-76
2023/07/31 10:42:36;;;;;;;5.20;2.42;;;33.20;39.60;;;;;;6215203;23;20001;-78
2023/07/31 10:45:07;;;;;;;7.57;2.58;;;33.30;39.50;;;;;;6215199;23;20004;-76
2023/07/31 10:47:44;;;;;;;7.10;2.70;;;33.30;39.40;;;;;;6214799;23;20001;-76
2023/07/31 10:50:23;;;;;;;9.20;3.03;;;33.30;39.70;;;;;;6214030;23;20004;-76
2023/07/31 10:52:52;;;;;;;15.98;3.35;;;33.30;39.30;;;;;;6214469;23;20151;-76
2023/07/31 10:55:24;;;;;;;7.80;2.70;;;33.40;39.20;;;;;;6214388;23;20024;-77
2023/07/31 10:57:50;;;;;;;6.72;2.60;;;33.40;38.80;;;;;;6214494;23;20001;-77
2023/07/31 11:00:23;;;;;;;6.80;2.78;;;33.40;39.00;;;;;;6214515;23;20004;-78
2023/07/31 11:03:03;;;;;;;6.80;3.38;;;33.40;39.10;;;;;;6214660;23;20016;-75
2023/07/31 11:05:48;;;;;;;6.45;2.72;;;33.40;39.80;;;;;;6214505;23;20107;-76
2023/07/31 11:08:24;;;;;;;5.28;2.67;;;33.50;39.90;;;;;;6214086;23;20001;-76
2023/07/31 11:11:03;;;;;;;6.65;2.97;;;33.60;39.50;;;;;;6187217;23;20047;-77
2023/07/31 11:13:32;;;;;;;11.05;3.40;;;33.50;39.60;;;;;;6214313;23;20000;-80
2023/07/31 11:15:58;;;;;;;4.75;2.80;;;33.60;39.60;;;;;;6214249;23;20012;-75
2023/07/31 11:18:25;;;;;;;5.88;2.63;;;33.60;38.60;;;;;;6213961;23;20024;-78
2023/07/31 11:20:51;;;;;;;6.45;2.92;;;33.60;38.30;;;;;;6214051;23;20004;-77
2023/07/31 11:23:17;;;;;;;5.78;2.90;;;33.60;38.70;;;;;;6214894;23;20012;-77
2023/07/31 11:25:43;;;;;;;5.70;3.10;;;33.70;38.90;;;;;;6214712;23;20016;-76
2023/07/31 11:28:11;;;;;;;6.38;2.67;;;33.80;38.70;;;;;;6214206;23;20419;-76
2023/07/31 11:30:37;;;;;;;7.30;2.90;;;33.90;39.20;;;;;;6214063;23;20016;-76
2023/07/31 11:33:04;;;;;;;15.63;3.67;;;33.90;38.10;;;;;;6187244;23;20009;-77
2023/07/31 11:35:44;;;;;;;8.77;2.95;;;34.00;37.60;;;;;;6215731;23;20011;-77
2023/07/31 11:38:25;;;;;;;6.40;3.42;;;34.00;38.60;;;;;;6189019;23;20004;-76
2023/07/31 11:40:52;;;;;;;6.35;3.40;;;34.00;38.10;;;;;;6189522;23;20056;-77
2023/07/31 11:43:19;;;;;;;6.43;3.00;;;34.00;37.10;;;;;;6216176;23;19996;-77
2023/07/31 11:45:49;;;;;;;7.07;2.92;;;34.10;36.70;;;;;;6215867;23;20016;-77
2023/07/31 11:48:36;;;;;;;7.50;3.00;;;34.10;36.50;;;;;;6216013;23;20001;-77
2023/07/31 11:51:03;;;;;;;7.18;3.38;;;34.10;37.30;;;;;;6215914;23;20016;-76
2023/07/31 11:53:41;;;;;;;3.80;2.60;;;34.20;37.10;;;;;;6215941;23;20427;-78
2023/07/31 11:56:10;;;;;;;5.50;2.97;;;34.20;37.50;;;;;;6216075;23;20027;-79
2023/07/31 11:58:37;;;;;;;12.05;3.30;;;34.20;36.60;;;;;;6216184;23;20003;-77
2023/07/31 12:01:04;;;;;;;5.85;3.00;;;34.30;36.70;;;;;;6216013;23;20038;-77
2023/07/31 12:03:31;;;;;;;5.72;3.10;;;34.30;36.90;;;;;;6216223;23;20112;-78
2023/07/31 12:05:58;;;;;;;6.68;2.97;;;34.30;36.70;;;;;;6189895;23;20086;-78
2023/07/31 12:08:25;;;;;;;6.78;3.50;;;34.30;36.90;;;;;;6216276;23;19997;-77
2023/07/31 12:10:51;;;;;;;9.35;2.88;;;34.40;36.90;;;;;;6216382;23;20012;-79
2023/07/31 12:13:26;;;;;;;7.85;3.08;;;34.40;36.60;;;;;;6190002;23;20008;-78
2023/07/31 12:16:03;;;;;;;9.48;3.70;;;34.40;38.10;;;;;;6216266;23;20008;-78
2023/07/31 12:18:38;;;;;;;9.48;3.75;;;34.60;41.20;;;;;;6216143;23;20016;-78
2023/07/31 12:21:08;;;;;;;8.98;3.92;;;34.60;45.00;;;;;;6216301;23;20024;-77
2023/07/31 12:23:36;;;;;;;7.45;3.85;;;34.60;47.50;;;;;;6215861;23;20005;-78
2023/07/31 12:26:06;;;;;;;9.60;3.92;;;34.60;48.50;;;;;;6216411;23;20473;-77
2023/07/31 12:28:36;;;;;;;8.00;3.58;;;34.60;49.60;;;;;;6215752;23;20435;-78
2023/07/31 12:31:02;;;;;;;10.98;4.15;;;34.60;50.10;;;;;;6215853;23;20088;-78
2023/07/31 12:33:35;;;;;;;8.70;3.92;;;34.60;51.00;;;;;;6216652;23;20015;-77
2023/07/31 12:36:03;;;;;;;12.57;4.10;;;34.60;52.50;;;;;;6215992;23;20079;-76
2023/07/31 12:38:30;;;;;;;10.35;3.92;;;34.60;53.30;;;;;;6215799;23;20004;-77
2023/07/31 12:40:56;;;;;;;7.40;3.65;;;34.60;54.10;;;;;;6215788;23;20005;-77